createdAt,value
2019-05-07T00:01:05.231Z,8.90
2019-05-07T00:03:34.595Z,8.73
2019-05-07T00:06:04.271Z,9.93
2019-05-07T00:08:33.727Z,10.27
2019-05-07T00:11:03.167Z,9.30
2019-05-07T00:13:33.276Z,9.40
2019-05-07T00:16:02.851Z,9.17
2019-05-07T00:18:32.445Z,10.20
2019-05-07T00:21:03.497Z,9.67
2019-05-07T00:23:33.087Z,9.83
2019-05-07T00:26:03.527Z,9.47
2019-05-07T00:28:32.995Z,10.57
2019-05-07T00:31:02.979Z,8.97
2019-05-07T00:33:33.307Z,9.33
2019-05-07T00:36:14.120Z,9.10
2019-05-07T00:38:45.909Z,9.60
2019-05-07T00:41:23.826Z,9.37
2019-05-07T00:43:55.395Z,9.47
2019-05-07T00:46:27.700Z,15.43
2019-05-07T00:48:57.099Z,11.60
2019-05-07T00:51:33.161Z,17.33
2019-05-07T00:54:03.103Z,16.30
2019-05-07T00:56:33.215Z,12.17
2019-05-07T00:59:02.789Z,9.30
2019-05-07T01:01:33.157Z,9.63
2019-05-07T01:04:02.842Z,9.70
2019-05-07T01:06:33.058Z,10.43
2019-05-07T01:09:03.348Z,9.50
2019-05-07T01:11:33.560Z,10.53
2019-05-07T01:14:03.187Z,10.73
2019-05-07T01:16:33.144Z,9.30
2019-05-07T01:19:02.596Z,10.47
2019-05-07T01:21:32.595Z,9.10
2019-05-07T01:24:03.178Z,9.73
2019-05-07T01:26:33.254Z,9.77
2019-05-07T01:29:03.360Z,11.17
2019-05-07T01:31:37.538Z,9.33
2019-05-07T01:34:26.931Z,10.47
2019-05-07T01:36:56.743Z,10.40
2019-05-07T01:39:26.137Z,9.97
2019-05-07T01:41:55.511Z,10.00
2019-05-07T01:44:24.916Z,9.33
2019-05-07T01:46:54.293Z,11.57
2019-05-07T01:49:24.182Z,11.13
2019-05-07T01:51:53.691Z,10.07
2019-05-07T01:54:23.781Z,10.37
2019-05-07T01:56:53.319Z,9.93
2019-05-07T01:59:22.756Z,10.77
2019-05-07T02:01:53.969Z,10.37
2019-05-07T02:04:29.101Z,10.10
2019-05-07T02:07:17.426Z,10.67
2019-05-07T02:09:55.020Z,10.53
2019-05-07T02:12:34.920Z,9.43
2019-05-07T02:15:04.768Z,10.27
2019-05-07T02:17:34.159Z,10.47
2019-05-07T02:20:03.675Z,10.77
2019-05-07T02:22:33.095Z,10.80
2019-05-07T02:25:03.300Z,10.67
2019-05-07T02:27:33.069Z,10.43
2019-05-07T02:30:04.283Z,10.47
2019-05-07T02:32:33.908Z,9.80
2019-05-07T02:35:04.205Z,10.43
2019-05-07T02:37:51.234Z,9.57
2019-05-07T02:40:23.110Z,11.17
2019-05-07T02:42:53.966Z,10.70
2019-05-07T02:45:43.780Z,10.73
2019-05-07T02:48:12.994Z,11.13
2019-05-07T02:51:13.162Z,10.33
2019-05-07T02:54:13.418Z,10.30
2019-05-07T02:56:43.434Z,10.10
2019-05-07T02:59:13.689Z,10.93
2019-05-07T03:01:43.613Z,11.27
2019-05-07T03:04:13.103Z,10.40
2019-05-07T03:06:44.332Z,10.60
2019-05-07T03:09:14.527Z,11.40
2019-05-07T03:11:44.182Z,10.37
2019-05-07T03:14:14.162Z,9.73
2019-05-07T03:16:48.807Z,10.53
2019-05-07T03:19:15.209Z,10.47
2019-05-07T03:21:54.338Z,9.80
2019-05-07T03:24:46.225Z,10.60
2019-05-07T03:27:15.890Z,10.40
2019-05-07T03:29:53.495Z,10.97
2019-05-07T03:32:36.798Z,9.77
2019-05-07T03:35:20.933Z,10.63
2019-05-07T03:37:50.884Z,9.47
2019-05-07T03:40:22.876Z,10.20
2019-05-07T03:42:53.447Z,10.37
2019-05-07T03:45:29.505Z,10.53
2019-05-07T03:48:15.777Z,10.83
2019-05-07T03:50:45.191Z,10.27
2019-05-07T03:53:14.772Z,11.20
2019-05-07T03:55:44.904Z,10.40
2019-05-07T03:58:14.826Z,10.20
2019-05-07T04:00:44.870Z,10.37
2019-05-07T04:03:19.103Z,9.70
2019-05-07T04:05:45.288Z,10.63
2019-05-07T04:08:14.771Z,10.90
2019-05-07T04:10:44.594Z,10.60
2019-05-07T04:13:14.476Z,10.30
2019-05-07T04:15:44.427Z,10.37
2019-05-07T04:18:13.822Z,10.40
2019-05-07T04:20:43.876Z,9.80
2019-05-07T04:23:13.946Z,9.57
2019-05-07T04:26:13.403Z,11.10
2019-05-07T04:28:53.651Z,11.47
2019-05-07T04:31:22.944Z,14.40
2019-05-07T04:33:53.334Z,15.83
2019-05-07T04:36:33.768Z,18.07
2019-05-07T04:39:02.934Z,23.27
2019-05-07T04:41:33.103Z,12.13
2019-05-07T04:44:03.509Z,11.43
2019-05-07T04:46:33.799Z,11.27
2019-05-07T04:49:03.888Z,15.73
2019-05-07T04:51:52.918Z,12.60
2019-05-07T04:54:23.623Z,12.33
2019-05-07T04:56:53.412Z,15.17
2019-05-07T04:59:23.799Z,11.57
2019-05-07T05:02:04.192Z,9.83
2019-05-07T05:04:34.736Z,11.33
2019-05-07T05:07:04.552Z,10.53
2019-05-07T05:09:33.956Z,10.40
2019-05-07T05:12:03.342Z,10.77
2019-05-07T05:14:33.901Z,9.87
2019-05-07T05:17:03.578Z,9.87
2019-05-07T05:19:33.007Z,10.67
2019-05-07T05:22:12.791Z,10.50
2019-05-07T05:24:45.082Z,9.27
2019-05-07T05:27:14.395Z,8.90
2019-05-07T05:29:43.810Z,9.03
2019-05-07T05:32:13.188Z,8.97
2019-05-07T05:34:42.723Z,9.17
2019-05-07T05:37:12.111Z,9.63
2019-05-07T05:39:42.707Z,9.07
2019-05-07T05:42:25.839Z,8.87
2019-05-07T05:44:55.311Z,8.73
2019-05-07T05:47:24.761Z,8.17
2019-05-07T05:49:54.139Z,8.13
2019-05-07T05:52:32.879Z,7.90
2019-05-07T05:55:06.763Z,9.00
2019-05-07T05:57:48.878Z,8.63
2019-05-07T06:00:36.303Z,7.23
2019-05-07T06:03:23.030Z,9.70
2019-05-07T06:06:23.088Z,7.20
2019-05-07T06:09:13.309Z,6.83
2019-05-07T06:11:54.992Z,7.33
2019-05-07T06:14:33.307Z,7.20
2019-05-07T06:17:22.285Z,6.80
2019-05-07T06:19:58.850Z,7.40
2019-05-07T06:22:42.340Z,7.50
2019-05-07T06:25:16.912Z,7.10
2019-05-07T06:27:46.331Z,6.57
2019-05-07T06:30:16.739Z,7.73
2019-05-07T06:32:46.123Z,7.20
2019-05-07T06:35:15.537Z,8.03
2019-05-07T06:37:45.913Z,8.33
2019-05-07T06:40:32.075Z,7.87
2019-05-07T06:43:15.924Z,8.90
2019-05-07T06:45:53.433Z,8.97
2019-05-07T06:48:37.800Z,8.83
2019-05-07T06:50:56.879Z,8.63
2019-05-07T06:53:28.088Z,8.83
2019-05-07T06:55:58.190Z,9.73
2019-05-07T06:58:33.666Z,8.57
2019-05-07T07:01:32.257Z,9.47
2019-05-07T07:04:13.322Z,9.13
2019-05-07T07:07:06.687Z,8.80
2019-05-07T07:09:51.914Z,9.03
2019-05-07T07:12:25.956Z,9.80
2019-05-07T07:14:56.564Z,8.07
2019-05-07T07:17:26.019Z,8.93
2019-05-07T07:19:55.403Z,9.53
2019-05-07T07:22:24.871Z,10.10
2019-05-07T07:24:54.278Z,9.10
2019-05-07T07:27:23.687Z,10.27
2019-05-07T07:30:02.410Z,8.93
2019-05-07T07:32:35.569Z,8.47
2019-05-07T07:35:06.716Z,10.10
2019-05-07T07:37:39.418Z,10.43
2019-05-07T07:40:32.685Z,9.43
2019-05-07T07:43:04.838Z,9.00
2019-05-07T07:45:33.212Z,9.90
2019-05-07T07:48:02.634Z,10.00
2019-05-07T07:50:33.061Z,9.83
2019-05-07T07:53:02.728Z,11.67
2019-05-07T07:55:46.368Z,11.23
2019-05-07T07:58:41.943Z,10.77
2019-05-07T08:01:16.120Z,9.03
2019-05-07T08:03:45.571Z,10.70
2019-05-07T08:06:14.984Z,10.03
2019-05-07T08:08:44.389Z,9.33
2019-05-07T08:11:13.778Z,8.83
2019-05-07T08:13:43.177Z,8.50
2019-05-07T08:16:13.041Z,7.70
2019-05-07T08:18:43.652Z,7.97
2019-05-07T08:21:13.173Z,8.13
2019-05-07T08:23:42.582Z,8.47
2019-05-07T08:26:12.711Z,8.03
2019-05-07T08:28:42.145Z,9.30
2019-05-07T08:31:48.687Z,8.47
2019-05-07T08:34:23.425Z,7.30
2019-05-07T08:36:52.845Z,7.43
2019-05-07T08:39:25.059Z,6.07
2019-05-07T08:41:53.379Z,6.57
2019-05-07T08:44:26.295Z,6.80
2019-05-07T08:47:22.707Z,6.43
2019-05-07T08:49:52.389Z,6.40
2019-05-07T08:52:22.351Z,6.60
2019-05-07T08:54:52.873Z,6.63
2019-05-07T08:57:22.866Z,5.83
2019-05-07T09:00:00.525Z,4.83
2019-05-07T09:02:23.459Z,5.13
2019-05-07T09:04:52.858Z,5.90
2019-05-07T09:07:22.289Z,5.47
2019-05-07T09:09:52.312Z,5.92
2019-05-07T09:12:22.922Z,6.33
2019-05-07T09:14:53.052Z,6.07
2019-05-07T09:17:23.103Z,5.23
2019-05-07T09:19:54.952Z,6.40
2019-05-07T09:22:23.700Z,5.43
2019-05-07T09:24:53.222Z,5.93
2019-05-07T09:27:32.700Z,6.23
2019-05-07T09:30:22.055Z,5.40
2019-05-07T09:32:58.707Z,5.30
2019-05-07T09:35:56.256Z,5.03
2019-05-07T09:38:25.734Z,5.37
2019-05-07T09:40:56.989Z,5.90
2019-05-07T09:43:26.469Z,5.92
2019-05-07T09:45:55.917Z,5.53
2019-05-07T09:48:25.286Z,5.78
2019-05-07T09:50:54.724Z,5.85
2019-05-07T09:53:24.136Z,5.92
2019-05-07T09:55:53.589Z,5.40
2019-05-07T09:58:35.781Z,6.50
2019-05-07T10:00:54.168Z,5.92
2019-05-07T10:03:23.671Z,6.20
2019-05-07T10:05:53.088Z,6.40
2019-05-07T10:08:22.483Z,6.92
2019-05-07T10:10:53.238Z,5.83
2019-05-07T10:13:36.393Z,6.60
2019-05-07T10:16:07.716Z,5.22
2019-05-07T10:18:36.918Z,6.60
2019-05-07T10:21:06.353Z,6.03
2019-05-07T10:23:35.856Z,7.60
2019-05-07T10:26:05.252Z,5.93
2019-05-07T10:28:34.719Z,6.55
2019-05-07T10:31:04.111Z,6.53
2019-05-07T10:33:33.515Z,6.53
2019-05-07T10:36:03.048Z,6.07
2019-05-07T10:38:32.434Z,6.90
2019-05-07T10:41:02.810Z,6.47
2019-05-07T10:43:32.824Z,7.43
2019-05-07T10:46:21.323Z,7.37
2019-05-07T10:48:55.208Z,7.13
2019-05-07T10:51:25.171Z,7.97
2019-05-07T10:53:54.563Z,7.03
2019-05-07T10:56:23.961Z,6.40
2019-05-07T10:58:53.398Z,6.73
2019-05-07T11:01:30.444Z,5.93
2019-05-07T11:04:01.725Z,6.63
2019-05-07T11:06:32.364Z,6.50
2019-05-07T11:09:01.835Z,7.35
2019-05-07T11:11:31.884Z,7.10
2019-05-07T11:14:01.960Z,6.37
2019-05-07T11:16:35.555Z,6.12
2019-05-07T11:19:05.365Z,8.60
2019-05-07T11:21:34.764Z,6.45
2019-05-07T11:24:04.251Z,6.77
2019-05-07T11:26:33.727Z,6.33
2019-05-07T11:29:03.136Z,5.77
2019-05-07T11:31:33.037Z,5.80
2019-05-07T11:34:03.021Z,6.93
2019-05-07T11:36:34.377Z,6.57
2019-05-07T11:39:04.332Z,6.93
2019-05-07T11:41:42.012Z,6.55
2019-05-07T11:44:16.193Z,6.53
2019-05-07T11:47:03.160Z,6.87
2019-05-07T11:49:52.334Z,7.58
2019-05-07T11:52:27.823Z,6.03
2019-05-07T11:54:57.228Z,6.67
2019-05-07T11:57:26.737Z,5.65
2019-05-07T11:59:56.195Z,5.95
2019-05-07T12:02:25.584Z,6.13
2019-05-07T12:04:55.011Z,6.65
2019-05-07T12:07:24.411Z,6.53
2019-05-07T12:09:53.915Z,6.80
2019-05-07T12:12:23.335Z,6.65
2019-05-07T12:14:52.843Z,6.00
2019-05-07T12:17:22.428Z,6.55
2019-05-07T12:19:52.690Z,6.20
2019-05-07T12:22:39.588Z,6.63
2019-05-07T12:25:09.086Z,6.40
2019-05-07T12:27:38.475Z,6.45
2019-05-07T12:30:12.057Z,6.70
2019-05-07T12:32:58.399Z,6.97
2019-05-07T12:35:27.808Z,5.90
2019-05-07T12:37:57.259Z,5.92
2019-05-07T12:40:26.668Z,6.62
2019-05-07T12:42:56.064Z,7.17
2019-05-07T12:45:25.464Z,7.10
2019-05-07T12:47:54.928Z,6.78
2019-05-07T12:50:24.342Z,6.63
2019-05-07T12:53:05.060Z,6.22
2019-05-07T12:55:42.841Z,7.30
2019-05-07T12:58:12.687Z,7.10
2019-05-07T13:00:56.178Z,7.75
2019-05-07T13:03:44.547Z,5.80
2019-05-07T13:06:13.971Z,6.83
2019-05-07T13:08:43.417Z,6.55
2019-05-07T13:11:13.322Z,6.37
2019-05-07T13:13:42.831Z,6.22
2019-05-07T13:16:12.823Z,5.75
2019-05-07T13:18:42.417Z,6.40
2019-05-07T13:21:12.001Z,5.83
2019-05-07T13:23:42.187Z,6.33
2019-05-07T13:26:11.679Z,6.22
2019-05-07T13:28:41.989Z,7.67
2019-05-07T13:31:12.574Z,6.72
2019-05-07T13:33:43.430Z,6.67
2019-05-07T13:36:12.951Z,7.22
2019-05-07T13:38:52.178Z,7.10
2019-05-07T13:41:35.321Z,7.37
2019-05-07T13:44:23.581Z,7.58
2019-05-07T13:47:12.943Z,7.13
2019-05-07T13:49:42.821Z,7.50
2019-05-07T13:52:12.208Z,8.05
2019-05-07T13:54:41.974Z,7.63
2019-05-07T13:57:12.001Z,8.10
2019-05-07T13:59:42.421Z,7.33
2019-05-07T14:02:15.377Z,7.43
2019-05-07T14:04:43.978Z,7.67
2019-05-07T14:07:13.465Z,7.70
2019-05-07T14:09:42.875Z,7.33
2019-05-07T14:12:12.447Z,7.00
2019-05-07T14:14:42.563Z,7.00
2019-05-07T14:17:12.653Z,7.37
2019-05-07T14:19:42.418Z,7.57
2019-05-07T14:22:16.272Z,7.05
2019-05-07T14:24:42.933Z,8.10
2019-05-07T14:27:12.385Z,8.63
2019-05-07T14:29:42.444Z,7.87
2019-05-07T14:32:20.848Z,8.45
2019-05-07T14:35:14.986Z,8.43
2019-05-07T14:37:47.900Z,7.97
2019-05-07T14:40:17.539Z,8.05
2019-05-07T14:42:52.530Z,7.03
2019-05-07T14:45:23.838Z,7.33
2019-05-07T14:47:53.158Z,8.03
2019-05-07T14:50:22.741Z,7.65
2019-05-07T14:52:55.074Z,8.27
2019-05-07T14:55:23.295Z,7.77
2019-05-07T14:57:52.839Z,7.93
2019-05-07T15:00:22.647Z,8.50
2019-05-07T15:02:52.570Z,7.60
2019-05-07T15:05:22.456Z,8.40
2019-05-07T15:07:52.099Z,7.47
2019-05-07T15:10:22.279Z,7.45
2019-05-07T15:12:52.275Z,7.58
2019-05-07T15:15:22.061Z,7.53
2019-05-07T15:18:12.231Z,8.25
2019-05-07T15:20:42.280Z,7.20
2019-05-07T15:23:19.358Z,6.70
2019-05-07T15:25:48.845Z,7.53
2019-05-07T15:28:18.555Z,7.50
2019-05-07T15:30:54.843Z,8.28
2019-05-07T15:33:24.219Z,7.30
2019-05-07T15:35:53.644Z,7.97
2019-05-07T15:38:23.589Z,7.83
2019-05-07T15:40:53.606Z,6.67
2019-05-07T15:43:23.008Z,7.62
2019-05-07T15:45:52.589Z,8.17
2019-05-07T15:48:22.145Z,8.30
2019-05-07T15:50:52.000Z,7.67
2019-05-07T15:53:28.308Z,7.87
2019-05-07T15:55:57.677Z,7.40
2019-05-07T15:58:27.122Z,7.83
2019-05-07T16:00:56.694Z,7.72
2019-05-07T16:03:34.423Z,7.45
2019-05-07T16:06:03.970Z,6.92
2019-05-07T16:08:36.370Z,7.50
2019-05-07T16:11:05.822Z,6.62
2019-05-07T16:13:37.506Z,7.62
2019-05-07T16:16:06.908Z,6.55
2019-05-07T16:18:42.128Z,7.37
2019-05-07T16:21:12.099Z,6.62
2019-05-07T16:23:41.528Z,6.80
2019-05-07T16:26:12.915Z,6.97
2019-05-07T16:28:41.985Z,7.72
2019-05-07T16:31:11.417Z,7.75
2019-05-07T16:33:42.924Z,7.72
2019-05-07T16:36:12.623Z,11.25
2019-05-07T16:38:42.020Z,33.85
2019-05-07T16:41:13.414Z,13.13
2019-05-07T16:43:42.856Z,7.83
2019-05-07T16:46:12.301Z,8.48
2019-05-07T16:48:43.781Z,7.35
2019-05-07T16:51:12.873Z,8.35
2019-05-07T16:53:42.339Z,8.33
2019-05-07T16:56:12.393Z,8.53
2019-05-07T16:58:49.064Z,8.38
2019-05-07T17:01:18.462Z,7.85
2019-05-07T17:03:52.149Z,7.53
2019-05-07T17:06:22.433Z,7.75
2019-05-07T17:09:10.170Z,8.25
2019-05-07T17:11:39.575Z,8.18
2019-05-07T17:14:09.044Z,7.70
2019-05-07T17:16:38.442Z,9.25
2019-05-07T17:19:08.201Z,7.53
2019-05-07T17:21:37.795Z,10.03
2019-05-07T17:24:07.264Z,10.90
2019-05-07T17:26:36.779Z,7.58
2019-05-07T17:29:06.349Z,7.78
2019-05-07T17:31:35.845Z,7.65
2019-05-07T17:34:05.342Z,8.90
2019-05-07T17:36:34.781Z,11.43
2019-05-07T17:39:05.415Z,9.13
2019-05-07T17:41:34.798Z,9.73
2019-05-07T17:44:04.183Z,7.65
2019-05-07T17:46:33.637Z,7.70
2019-05-07T17:49:03.154Z,7.80
2019-05-07T17:51:52.638Z,8.33
2019-05-07T17:54:22.545Z,9.20
2019-05-07T17:56:52.708Z,8.60
2019-05-07T17:59:22.195Z,10.13
2019-05-07T18:02:08.964Z,9.90
2019-05-07T18:04:50.607Z,9.93
2019-05-07T18:07:12.009Z,10.45
2019-05-07T18:09:42.470Z,9.33
2019-05-07T18:12:12.168Z,10.07
2019-05-07T18:14:42.421Z,9.63
2019-05-07T18:17:22.017Z,8.93
2019-05-07T18:19:51.614Z,9.17
2019-05-07T18:22:22.165Z,9.47
2019-05-07T18:24:51.749Z,8.47
2019-05-07T18:27:23.887Z,8.73
2019-05-07T18:29:53.343Z,8.40
2019-05-07T18:32:25.578Z,8.33
2019-05-07T18:34:55.004Z,8.53
2019-05-07T18:37:24.417Z,9.33
2019-05-07T18:39:53.946Z,9.57
2019-05-07T18:42:23.442Z,8.57
2019-05-07T18:44:53.010Z,8.70
2019-05-07T18:47:22.529Z,8.27
2019-05-07T18:49:52.355Z,8.20
2019-05-07T18:52:23.002Z,7.57
2019-05-07T18:54:52.419Z,8.33
2019-05-07T18:57:22.263Z,8.37
2019-05-07T18:59:53.097Z,10.20
2019-05-07T19:02:22.814Z,8.20
2019-05-07T19:04:52.318Z,8.60
2019-05-07T19:07:22.989Z,8.77
2019-05-07T19:09:52.651Z,9.07
2019-05-07T19:12:25.175Z,9.13
2019-05-07T19:14:54.626Z,10.07
2019-05-07T19:17:25.757Z,8.57
2019-05-07T19:19:55.341Z,9.13
2019-05-07T19:22:24.871Z,9.20
2019-05-07T19:24:54.337Z,10.10
2019-05-07T19:27:23.750Z,8.73
2019-05-07T19:29:53.132Z,9.33
2019-05-07T19:32:22.942Z,8.00
2019-05-07T19:34:53.405Z,8.70
2019-05-07T19:37:22.891Z,8.63
2019-05-07T19:39:52.466Z,9.17
2019-05-07T19:42:21.832Z,8.00
2019-05-07T19:44:51.959Z,9.03
2019-05-07T19:47:23.272Z,8.17
2019-05-07T19:49:52.835Z,7.70
2019-05-07T19:52:23.112Z,8.67
2019-05-07T19:55:00.782Z,8.47
2019-05-07T19:57:28.676Z,8.17
2019-05-07T19:59:58.050Z,8.37
2019-05-07T20:02:32.160Z,8.90
2019-05-07T20:05:03.492Z,9.33
2019-05-07T20:07:32.667Z,10.00
2019-05-07T20:10:02.655Z,9.73
2019-05-07T20:12:32.712Z,8.87
2019-05-07T20:15:02.833Z,8.70
2019-05-07T20:17:33.585Z,8.57
2019-05-07T20:20:03.520Z,8.43
2019-05-07T20:22:33.374Z,8.80
2019-05-07T20:25:15.720Z,9.37
2019-05-07T20:27:33.815Z,8.43
2019-05-07T20:30:03.295Z,9.53
2019-05-07T20:32:33.040Z,9.57
2019-05-07T20:35:02.790Z,12.17
2019-05-07T20:37:32.988Z,8.93
2019-05-07T20:40:03.040Z,10.37
2019-05-07T20:42:32.947Z,11.27
2019-05-07T20:45:03.027Z,11.63
2019-05-07T20:47:32.704Z,15.13
2019-05-07T20:50:02.287Z,13.37
2019-05-07T20:52:32.536Z,12.33
2019-05-07T20:55:27.961Z,10.50
2019-05-07T20:57:46.643Z,9.87
2019-05-07T21:00:24.031Z,8.80
2019-05-07T21:03:12.614Z,9.37
2019-05-07T21:05:42.293Z,8.30
2019-05-07T21:08:12.095Z,8.53
2019-05-07T21:10:42.623Z,8.60
2019-05-07T21:13:26.841Z,9.13
2019-05-07T21:15:43.158Z,9.30
2019-05-07T21:18:12.549Z,9.00
2019-05-07T21:20:42.219Z,16.43
2019-05-07T21:23:12.349Z,11.37
2019-05-07T21:25:45.719Z,10.03
2019-05-07T21:28:12.839Z,10.07
2019-05-07T21:30:42.788Z,25.93
2019-05-07T21:33:12.189Z,10.57
2019-05-07T21:35:42.924Z,9.50
2019-05-07T21:38:12.773Z,9.90
2019-05-07T21:40:42.823Z,9.33
2019-05-07T21:43:14.233Z,10.17
2019-05-07T21:45:43.688Z,9.17
2019-05-07T21:48:13.752Z,10.33
2019-05-07T21:50:43.185Z,9.63
2019-05-07T21:53:26.907Z,10.47
2019-05-07T21:56:05.355Z,10.40
2019-05-07T21:58:38.213Z,10.53
2019-05-07T22:01:15.741Z,10.17
2019-05-07T22:03:48.631Z,10.03
2019-05-07T22:06:18.046Z,10.87
2019-05-07T22:08:47.569Z,10.60
2019-05-07T22:11:16.936Z,10.70
2019-05-07T22:13:46.319Z,11.10
2019-05-07T22:16:15.748Z,10.10
2019-05-07T22:18:45.147Z,10.43
2019-05-07T22:21:14.580Z,10.43
2019-05-07T22:23:44.039Z,10.10
2019-05-07T22:26:22.640Z,10.03
2019-05-07T22:28:44.549Z,10.27
2019-05-07T22:31:44.767Z,9.80
2019-05-07T22:34:33.079Z,10.47
2019-05-07T22:37:03.376Z,10.57
2019-05-07T22:39:32.879Z,10.53
2019-05-07T22:42:02.458Z,10.47
2019-05-07T22:44:32.286Z,10.17
2019-05-07T22:47:18.719Z,11.77
2019-05-07T22:49:49.469Z,11.40
2019-05-07T22:52:19.505Z,11.27
2019-05-07T22:54:48.925Z,10.20
2019-05-07T22:57:27.727Z,11.13
2019-05-07T22:59:57.126Z,10.63
2019-05-07T23:02:26.536Z,10.97
2019-05-07T23:04:55.921Z,11.10
2019-05-07T23:07:25.328Z,10.80
2019-05-07T23:09:54.733Z,11.53
2019-05-07T23:12:24.157Z,12.27
2019-05-07T23:14:53.770Z,11.93
2019-05-07T23:17:23.172Z,12.10
2019-05-07T23:19:55.069Z,11.37
2019-05-07T23:22:23.807Z,10.50
2019-05-07T23:24:53.220Z,10.50
2019-05-07T23:27:22.682Z,12.47
2019-05-07T23:29:52.871Z,11.90
2019-05-07T23:32:22.409Z,11.57
2019-05-07T23:34:52.729Z,10.73
2019-05-07T23:37:22.593Z,12.03
2019-05-07T23:39:53.965Z,11.03
2019-05-07T23:42:27.250Z,12.77
2019-05-07T23:44:56.662Z,11.67
2019-05-07T23:47:26.055Z,11.87
2019-05-07T23:49:55.477Z,10.70
2019-05-07T23:52:24.886Z,12.10
2019-05-07T23:54:54.365Z,11.10
2019-05-07T23:57:23.920Z,11.20
2019-05-07T23:59:53.337Z,11.37
